Startpagina
METAR-TAF:

METAR-TAF

Vliegvelden :

Agartala, India

breedte: 23-53-24N, lengte: 91-14-32E, hoogte: 14 m

Actueel weer

Dit bericht is 44 minuten geleden gemaakt, om 11:00 UTC
Wind 3 kt uit het noordnoordwesten
Temperatuur 36°C
Vochtigheid 64%
Druk 994 hPa
Zicht: 6000 m
Verspreide wolken op 1800 ft
Gebroken wolken op 10000 ft

METAR: VEAT 191100Z 33003KT 6000 SCT018 BKN100 36/28 Q0994 NOSIG

Tijdstip: 17:14 (11:44 UTC)


TAF: ontbreekt

Waarnemingen en weersverwachtingen van meer dan 4000 vliegvelden (METAR en TAF).

De beschikbare stations zijn de gele en rode punten op de kaart.

Ga met uw muis naar het station om de naam te zien.

Klik dan om waarnemingen en weersverwachtingen te zien.

kaart wijzigen: klik op de groene knoppen met een zwart kruis om in te zoomen, op de groene knop met een streepje om uit te zoomen of op de groene pijlen voor aangrenzende kaarten.


METAR-TAF: